createdAt,value
2018-05-13T00:02:27.901Z,26.03
2018-05-13T00:05:02.192Z,25.07
2018-05-13T00:07:36.492Z,24.83
2018-05-13T00:10:12.640Z,23.27
2018-05-13T00:12:46.953Z,23.53
2018-05-13T00:15:21.981Z,23.97
2018-05-13T00:17:56.550Z,23.97
2018-05-13T00:20:30.933Z,24.77
2018-05-13T00:23:05.380Z,25.33
2018-05-13T00:25:39.792Z,25.17
2018-05-13T00:28:14.075Z,26.03
2018-05-13T00:30:48.419Z,24.90
2018-05-13T00:33:22.732Z,25.80
2018-05-13T00:35:57.057Z,24.80
2018-05-13T00:38:31.680Z,25.27
2018-05-13T00:41:06.205Z,25.33
2018-05-13T00:43:40.648Z,25.97
2018-05-13T00:46:15.057Z,25.17
2018-05-13T00:48:49.402Z,25.43
2018-05-13T00:51:23.960Z,26.03
2018-05-13T00:53:58.609Z,24.83
2018-05-13T00:56:33.004Z,25.10
2018-05-13T00:59:07.477Z,24.30
2018-05-13T01:01:41.960Z,23.93
2018-05-13T01:04:16.396Z,23.87
2018-05-13T01:06:50.912Z,25.87
2018-05-13T01:09:25.254Z,24.93
2018-05-13T01:11:59.644Z,26.03
2018-05-13T01:14:34.174Z,24.57
2018-05-13T01:17:08.600Z,24.37
2018-05-13T01:19:43.025Z,23.90
2018-05-13T01:22:17.537Z,25.37
2018-05-13T01:24:51.864Z,25.50
2018-05-13T01:27:26.248Z,25.07
2018-05-13T01:30:01.529Z,25.87
2018-05-13T01:32:35.944Z,24.97
2018-05-13T01:35:10.452Z,24.23
2018-05-13T01:37:44.889Z,25.63
2018-05-13T01:40:19.320Z,25.30
2018-05-13T01:42:53.800Z,26.00
2018-05-13T01:45:28.220Z,25.17
2018-05-13T01:48:02.789Z,25.63
2018-05-13T01:50:37.041Z,25.57
2018-05-13T01:53:12.355Z,25.60
2018-05-13T01:55:46.635Z,24.80
2018-05-13T01:58:21.056Z,25.50
2018-05-13T02:00:55.800Z,25.80
2018-05-13T02:03:30.169Z,25.73
2018-05-13T02:06:04.593Z,26.30
2018-05-13T02:08:39.070Z,25.83
2018-05-13T02:11:13.600Z,26.03
2018-05-13T02:13:48.133Z,25.97
2018-05-13T02:16:22.529Z,25.57
2018-05-13T02:18:56.834Z,24.73
2018-05-13T02:21:31.272Z,26.07
2018-05-13T02:24:05.569Z,25.13
2018-05-13T02:26:40.624Z,25.13
2018-05-13T02:29:15.301Z,26.43
2018-05-13T02:31:49.589Z,24.67
2018-05-13T02:34:23.988Z,25.33
2018-05-13T02:36:58.400Z,24.90
2018-05-13T02:39:32.936Z,25.43
2018-05-13T02:42:08.092Z,25.33
2018-05-13T02:44:43.272Z,24.43
2018-05-13T02:47:17.652Z,24.63
2018-05-13T02:49:52.093Z,26.17
2018-05-13T02:52:26.577Z,24.70
2018-05-13T02:55:00.911Z,23.73
2018-05-13T02:57:35.527Z,25.80
2018-05-13T03:00:10.041Z,25.27
2018-05-13T03:02:44.669Z,25.17
2018-05-13T03:05:19.121Z,24.57
2018-05-13T03:07:53.497Z,24.00
2018-05-13T03:10:28.533Z,25.10
2018-05-13T03:13:02.983Z,23.50
2018-05-13T03:15:37.352Z,25.17
2018-05-13T03:18:13.364Z,25.33
2018-05-13T03:20:47.652Z,25.57
2018-05-13T03:23:22.078Z,25.03
2018-05-13T03:25:56.713Z,24.63
2018-05-13T03:28:31.224Z,23.87
2018-05-13T03:31:06.341Z,24.83
2018-05-13T03:33:42.317Z,25.17
2018-05-13T03:36:16.765Z,25.17
2018-05-13T03:38:52.173Z,22.87
2018-05-13T03:41:26.616Z,24.10
2018-05-13T03:44:01.141Z,23.97
2018-05-13T03:46:35.419Z,23.23
2018-05-13T03:49:09.850Z,24.37
2018-05-13T03:51:44.189Z,24.70
2018-05-13T03:54:18.556Z,25.13
2018-05-13T03:56:53.854Z,23.63
2018-05-13T03:59:28.373Z,25.03
2018-05-13T04:02:02.744Z,25.30
2018-05-13T04:04:37.817Z,24.40
2018-05-13T04:07:12.937Z,25.60
2018-05-13T04:09:59.139Z,24.07
2018-05-13T04:12:45.492Z,24.93
2018-05-13T04:15:25.416Z,25.73
2018-05-13T04:17:59.800Z,24.90
2018-05-13T04:20:35.017Z,22.40
2018-05-13T04:23:09.486Z,24.23
2018-05-13T04:25:43.918Z,24.67
2018-05-13T04:28:18.440Z,25.23
2018-05-13T04:30:52.692Z,23.73
2018-05-13T04:33:27.288Z,24.83
2018-05-13T04:36:01.700Z,22.97
2018-05-13T04:38:36.204Z,21.13
2018-05-13T04:41:10.576Z,17.50
2018-05-13T04:43:45.013Z,14.00
2018-05-13T04:46:20.101Z,13.53
2018-05-13T04:48:54.435Z,13.00
2018-05-13T04:51:29.045Z,10.77
2018-05-13T04:54:03.573Z,21.77
2018-05-13T04:56:37.993Z,21.60
2018-05-13T04:59:12.632Z,21.77
2018-05-13T05:01:47.028Z,20.37
2018-05-13T05:04:21.384Z,21.17
2018-05-13T05:06:56.080Z,22.77
2018-05-13T05:09:30.725Z,22.33
2018-05-13T05:12:05.160Z,21.97
2018-05-13T05:14:39.668Z,22.47
2018-05-13T05:17:14.068Z,21.60
2018-05-13T05:19:49.320Z,22.23
2018-05-13T05:22:23.964Z,22.50
2018-05-13T05:24:58.557Z,21.83
2018-05-13T05:27:32.963Z,21.23
2018-05-13T05:30:07.385Z,22.33
2018-05-13T05:32:42.032Z,22.43
2018-05-13T05:35:16.536Z,21.50
2018-05-13T05:37:50.937Z,21.80
2018-05-13T05:40:25.271Z,21.40
2018-05-13T05:42:59.704Z,23.13
2018-05-13T05:45:33.997Z,23.10
2018-05-13T05:48:08.540Z,22.40
2018-05-13T05:50:42.953Z,21.00
2018-05-13T05:53:17.316Z,22.37
2018-05-13T05:55:53.327Z,22.40
2018-05-13T05:58:27.649Z,23.37
2018-05-13T06:01:02.328Z,24.03
2018-05-13T06:03:36.811Z,21.80
2018-05-13T06:06:11.241Z,22.50
2018-05-13T06:08:45.651Z,22.37
2018-05-13T06:11:20.074Z,21.50
2018-05-13T06:13:54.584Z,21.87
2018-05-13T06:16:29.021Z,21.73
2018-05-13T06:19:03.445Z,20.77
2018-05-13T06:21:38.045Z,20.73
2018-05-13T06:24:12.476Z,22.10
2018-05-13T06:26:47.115Z,21.20
2018-05-13T06:29:21.641Z,21.20
2018-05-13T06:31:56.124Z,21.30
2018-05-13T06:34:30.360Z,22.00
2018-05-13T06:37:04.900Z,17.90
2018-05-13T06:39:39.489Z,18.90
2018-05-13T06:42:14.008Z,19.90
2018-05-13T06:44:48.570Z,21.10
2018-05-13T06:47:23.592Z,20.87
2018-05-13T06:49:58.247Z,19.63
2018-05-13T06:52:32.525Z,17.87
2018-05-13T06:55:07.072Z,19.97
2018-05-13T06:57:41.497Z,13.67
2018-05-13T07:00:16.733Z,19.80
2018-05-13T07:02:51.062Z,13.87
2018-05-13T07:05:25.350Z,20.70
2018-05-13T07:07:59.787Z,16.97
2018-05-13T07:10:34.941Z,14.27
2018-05-13T07:13:09.256Z,18.53
2018-05-13T07:15:43.708Z,20.27
2018-05-13T07:18:18.889Z,15.57
2018-05-13T07:20:53.932Z,18.50
2018-05-13T07:23:28.572Z,18.60
2018-05-13T07:26:03.067Z,17.47
2018-05-13T07:28:37.549Z,17.03
2018-05-13T07:31:11.968Z,19.07
2018-05-13T07:33:46.330Z,19.17
2018-05-13T07:36:20.736Z,19.20
2018-05-13T07:38:55.133Z,20.43
2018-05-13T07:41:29.621Z,19.77
2018-05-13T07:44:04.961Z,21.13
2018-05-13T07:46:39.291Z,18.93
2018-05-13T07:49:13.659Z,19.83
2018-05-13T07:51:48.043Z,20.53
2018-05-13T07:54:22.417Z,16.63
2018-05-13T07:56:56.947Z,13.20
2018-05-13T07:59:32.917Z,17.53
2018-05-13T08:02:07.408Z,17.93
2018-05-13T08:04:41.804Z,16.37
2018-05-13T08:07:16.261Z,13.27
2018-05-13T08:09:51.421Z,14.30
2018-05-13T08:12:26.116Z,18.90
2018-05-13T08:15:00.506Z,15.27
2018-05-13T08:17:35.592Z,16.10
2018-05-13T08:20:10.028Z,16.00
2018-05-13T08:22:44.351Z,16.67
2018-05-13T08:25:19.521Z,20.13
2018-05-13T08:27:53.908Z,19.27
2018-05-13T08:30:29.084Z,17.77
2018-05-13T08:33:04.192Z,20.10
2018-05-13T08:35:38.713Z,16.47
2018-05-13T08:38:13.220Z,10.60
2018-05-13T08:40:47.861Z,14.90
2018-05-13T08:43:23.011Z,10.30
2018-05-13T08:45:57.382Z,12.93
2018-05-13T08:48:31.728Z,9.77
2018-05-13T08:51:06.162Z,15.57
2018-05-13T08:53:40.670Z,12.60
2018-05-13T08:56:15.752Z,16.23
2018-05-13T08:58:50.048Z,14.40
2018-05-13T09:01:24.468Z,15.73
2018-05-13T09:03:59.075Z,20.33
2018-05-13T09:06:33.593Z,16.33
2018-05-13T09:09:08.125Z,17.47
2018-05-13T09:11:43.282Z,13.27
2018-05-13T09:14:17.745Z,22.83
2018-05-13T09:16:52.196Z,18.00
2018-05-13T09:19:26.720Z,17.43
2018-05-13T09:22:01.352Z,11.03
2018-05-13T09:24:35.676Z,18.97
2018-05-13T09:27:10.120Z,16.83
2018-05-13T09:29:44.545Z,17.23
2018-05-13T09:32:18.953Z,11.30
2018-05-13T09:34:53.252Z,10.87
2018-05-13T09:37:27.864Z,17.10
2018-05-13T09:40:02.177Z,20.90
2018-05-13T09:42:36.705Z,10.80
2018-05-13T09:45:11.954Z,19.50
2018-05-13T09:47:47.012Z,10.80
2018-05-13T09:50:21.312Z,19.43
2018-05-13T09:52:55.830Z,10.70
2018-05-13T09:55:30.104Z,9.27
2018-05-13T09:58:04.464Z,10.77
2018-05-13T10:00:38.988Z,9.60
2018-05-13T10:03:13.655Z,9.23
2018-05-13T10:05:48.177Z,17.43
2018-05-13T10:08:23.265Z,19.93
2018-05-13T10:10:57.697Z,20.67
2018-05-13T10:13:31.995Z,12.83
2018-05-13T10:16:06.436Z,12.03
2018-05-13T10:18:40.960Z,12.90
2018-05-13T10:21:15.581Z,14.20
2018-05-13T10:23:49.988Z,14.87
2018-05-13T10:26:24.444Z,16.10
2018-05-13T10:28:58.713Z,17.33
2018-05-13T10:31:34.089Z,17.30
2018-05-13T10:34:08.596Z,11.73
2018-05-13T10:36:42.897Z,9.33
2018-05-13T10:39:17.312Z,10.23
2018-05-13T10:41:51.656Z,17.00
2018-05-13T10:44:25.937Z,13.83
2018-05-13T10:47:00.401Z,17.67
2018-05-13T10:49:35.608Z,18.93
2018-05-13T10:52:09.972Z,9.63
2018-05-13T10:54:44.481Z,10.53
2018-05-13T10:57:19.104Z,11.63
2018-05-13T10:59:53.552Z,17.27
2018-05-13T11:02:27.877Z,8.30
2018-05-13T11:05:02.270Z,19.37
2018-05-13T11:07:36.561Z,15.67
2018-05-13T11:10:10.934Z,19.77
2018-05-13T11:12:45.292Z,9.33
2018-05-13T11:15:19.485Z,13.53
2018-05-13T11:17:53.931Z,8.33
2018-05-13T11:20:28.404Z,16.67
2018-05-13T11:23:02.698Z,15.30
2018-05-13T11:25:36.988Z,8.60
2018-05-13T11:28:11.443Z,15.73
2018-05-13T11:30:46.064Z,20.03
2018-05-13T11:33:20.496Z,13.60
2018-05-13T11:35:54.988Z,9.67
2018-05-13T11:38:29.332Z,10.40
2018-05-13T11:41:03.776Z,14.23
2018-05-13T11:43:38.223Z,14.23
2018-05-13T11:46:12.498Z,16.30
2018-05-13T11:48:46.887Z,15.50
2018-05-13T11:51:21.540Z,16.20
2018-05-13T11:53:56.030Z,19.67
2018-05-13T11:56:30.421Z,18.77
2018-05-13T11:59:04.804Z,15.50
2018-05-13T12:01:39.302Z,17.53
2018-05-13T12:04:13.722Z,17.03
2018-05-13T12:06:48.116Z,14.47
2018-05-13T12:09:22.436Z,10.27
2018-05-13T12:11:56.917Z,16.80
2018-05-13T12:14:31.327Z,19.53
2018-05-13T12:17:05.729Z,16.57
2018-05-13T12:19:40.195Z,16.33
2018-05-13T12:22:16.320Z,18.23
2018-05-13T12:24:50.847Z,15.20
2018-05-13T12:27:25.312Z,16.50
2018-05-13T12:29:59.790Z,17.50
2018-05-13T12:32:34.215Z,12.63
2018-05-13T12:35:08.496Z,17.10
2018-05-13T12:37:43.047Z,24.73
2018-05-13T12:40:17.322Z,26.37
2018-05-13T12:42:51.894Z,29.57
2018-05-13T12:45:26.186Z,32.73
2018-05-13T12:48:00.767Z,25.23
2018-05-13T12:50:35.257Z,30.27
2018-05-13T12:53:09.568Z,29.13
2018-05-13T12:55:43.895Z,30.27
2018-05-13T12:58:18.343Z,30.77
2018-05-13T13:00:52.755Z,27.87
2018-05-13T13:03:27.147Z,28.37
2018-05-13T13:06:01.545Z,31.17
2018-05-13T13:08:36.047Z,31.23
2018-05-13T13:11:11.215Z,33.70
2018-05-13T13:13:45.566Z,28.73
2018-05-13T13:16:19.851Z,19.10
2018-05-13T13:18:55.172Z,15.17
2018-05-13T13:21:29.573Z,12.33
2018-05-13T13:24:04.152Z,10.07
2018-05-13T13:26:38.421Z,8.67
2018-05-13T13:29:12.666Z,8.03
2018-05-13T13:31:47.168Z,7.30
2018-05-13T13:34:21.631Z,6.90
2018-05-13T13:36:56.261Z,6.60
2018-05-13T13:39:30.537Z,5.90
2018-05-13T13:42:05.316Z,5.90
2018-05-13T13:44:39.788Z,6.20
2018-05-13T13:47:14.923Z,6.03
2018-05-13T13:49:49.488Z,5.90
2018-05-13T13:52:23.860Z,5.63
2018-05-13T13:54:58.508Z,5.37
2018-05-13T13:57:32.970Z,5.60
2018-05-13T14:00:07.408Z,4.93
2018-05-13T14:02:41.768Z,5.13
2018-05-13T14:05:16.824Z,5.20
2018-05-13T14:07:51.175Z,4.77
2018-05-13T14:10:26.166Z,5.40
2018-05-13T14:13:00.424Z,5.07
2018-05-13T14:15:35.037Z,4.60
2018-05-13T14:18:09.414Z,5.23
2018-05-13T14:20:44.672Z,4.40
2018-05-13T14:23:19.104Z,4.70
2018-05-13T14:25:53.430Z,4.47
2018-05-13T14:28:27.759Z,4.23
2018-05-13T14:31:02.083Z,4.03
2018-05-13T14:33:37.440Z,4.20
2018-05-13T14:36:11.910Z,4.10
2018-05-13T14:38:46.411Z,4.20
2018-05-13T14:41:20.805Z,5.10
2018-05-13T14:43:55.313Z,34.87
2018-05-13T14:46:30.519Z,36.10
2018-05-13T14:49:05.066Z,38.33
2018-05-13T14:51:39.321Z,34.37
2018-05-13T14:54:13.814Z,39.03
2018-05-13T14:56:48.545Z,40.23
2018-05-13T14:59:22.817Z,39.37
2018-05-13T15:01:57.121Z,41.30
2018-05-13T15:04:31.504Z,40.60
2018-05-13T15:07:06.008Z,37.00
2018-05-13T15:09:40.283Z,36.33
2018-05-13T15:12:14.651Z,35.97
2018-05-13T15:14:49.170Z,39.57
2018-05-13T15:17:23.541Z,35.30
2018-05-13T15:19:57.933Z,36.40
2018-05-13T15:22:33.215Z,30.00
2018-05-13T15:25:07.801Z,37.17
2018-05-13T15:27:42.225Z,36.20
2018-05-13T15:30:18.161Z,34.73
2018-05-13T15:32:52.624Z,36.97
2018-05-13T15:35:27.101Z,36.47
2018-05-13T15:38:01.406Z,34.13
2018-05-13T15:40:35.729Z,35.43
2018-05-13T15:43:10.208Z,32.50
2018-05-13T15:45:44.472Z,35.47
2018-05-13T15:48:19.109Z,39.17
2018-05-13T15:50:53.616Z,38.23
2018-05-13T15:53:27.961Z,35.43
2018-05-13T15:56:02.364Z,37.00
2018-05-13T15:58:36.679Z,37.60
2018-05-13T16:01:11.624Z,34.70
2018-05-13T16:03:46.019Z,36.50
2018-05-13T16:06:20.632Z,39.27
2018-05-13T16:08:54.929Z,37.03
2018-05-13T16:11:29.285Z,35.50
2018-05-13T16:14:03.564Z,38.63
2018-05-13T16:16:38.049Z,38.17
2018-05-13T16:19:12.429Z,36.13
2018-05-13T16:21:46.721Z,39.17
2018-05-13T16:24:21.109Z,42.43
2018-05-13T16:26:55.732Z,38.10
2018-05-13T16:29:30.250Z,40.03
2018-05-13T16:32:04.748Z,43.00
2018-05-13T16:34:39.069Z,38.67
2018-05-13T16:37:13.372Z,39.97
2018-05-13T16:39:48.407Z,39.63
2018-05-13T16:42:22.718Z,43.93
2018-05-13T16:44:57.119Z,41.97
2018-05-13T16:47:31.558Z,39.17
2018-05-13T16:50:05.883Z,39.07
2018-05-13T16:52:40.193Z,39.97
2018-05-13T16:55:14.541Z,39.77
2018-05-13T16:57:49.110Z,39.13
2018-05-13T17:00:23.514Z,37.97
2018-05-13T17:02:57.912Z,36.73
2018-05-13T17:05:32.326Z,35.13
2018-05-13T17:08:06.609Z,33.30
2018-05-13T17:10:40.857Z,37.07
2018-05-13T17:13:15.408Z,38.10
2018-05-13T17:15:49.960Z,36.60
2018-05-13T17:18:24.253Z,38.17
2018-05-13T17:20:58.705Z,35.03
2018-05-13T17:23:33.088Z,37.27
2018-05-13T17:26:07.357Z,37.73
2018-05-13T17:28:41.956Z,35.77
2018-05-13T17:31:16.697Z,35.67
2018-05-13T17:33:51.281Z,38.17
2018-05-13T17:36:26.449Z,35.97
2018-05-13T17:39:01.292Z,37.97
2018-05-13T17:41:39.408Z,37.17
2018-05-13T17:44:16.808Z,40.30
2018-05-13T17:46:51.125Z,39.80
2018-05-13T17:49:25.521Z,36.80
2018-05-13T17:52:00.036Z,40.70
2018-05-13T17:54:34.516Z,35.53
2018-05-13T17:57:11.025Z,38.03
2018-05-13T17:59:45.508Z,36.43
2018-05-13T18:02:19.937Z,40.43
2018-05-13T18:04:54.285Z,40.10
2018-05-13T18:07:28.813Z,36.77
2018-05-13T18:10:03.377Z,38.90
2018-05-13T18:12:37.747Z,39.00
2018-05-13T18:15:13.627Z,38.60
2018-05-13T18:17:48.052Z,39.60
2018-05-13T18:20:23.224Z,37.70
2018-05-13T18:22:59.253Z,38.03
2018-05-13T18:25:33.591Z,39.13
2018-05-13T18:28:07.973Z,38.80
2018-05-13T18:30:42.477Z,39.80
2018-05-13T18:33:16.828Z,39.93
2018-05-13T18:35:51.340Z,39.43
2018-05-13T18:38:25.666Z,40.63
2018-05-13T18:41:00.414Z,37.67
2018-05-13T18:43:34.845Z,41.23
2018-05-13T18:46:09.440Z,40.20
2018-05-13T18:48:43.755Z,38.70
2018-05-13T18:51:18.099Z,40.03
2018-05-13T18:53:52.536Z,42.80
2018-05-13T18:56:26.910Z,40.90
2018-05-13T18:59:01.312Z,38.83
2018-05-13T19:01:35.757Z,38.33
2018-05-13T19:04:10.154Z,38.87
2018-05-13T19:06:44.484Z,40.30
2018-05-13T19:09:19.031Z,41.50
2018-05-13T19:11:53.450Z,40.40
2018-05-13T19:14:27.757Z,38.50
2018-05-13T19:17:02.156Z,36.67
2018-05-13T19:19:36.581Z,38.30
2018-05-13T19:22:11.024Z,41.17
2018-05-13T19:24:45.388Z,38.73
2018-05-13T19:27:19.800Z,40.30
2018-05-13T19:29:54.099Z,39.00
2018-05-13T19:32:28.480Z,42.23
2018-05-13T19:35:02.955Z,41.60
2018-05-13T19:37:37.238Z,39.10
2018-05-13T19:40:11.779Z,40.37
2018-05-13T19:42:46.188Z,37.17
2018-05-13T19:45:20.831Z,40.87
2018-05-13T19:47:55.338Z,41.53
2018-05-13T19:50:29.760Z,39.07
2018-05-13T19:53:04.153Z,37.20
2018-05-13T19:55:38.705Z,36.70
2018-05-13T19:58:13.098Z,34.27
2018-05-13T20:00:47.517Z,41.77
2018-05-13T20:03:22.797Z,35.07
2018-05-13T20:05:57.003Z,37.40
2018-05-13T20:08:31.509Z,38.03
2018-05-13T20:11:05.868Z,39.67
2018-05-13T20:13:40.277Z,40.10
2018-05-13T20:16:14.838Z,38.63
2018-05-13T20:18:49.278Z,40.73
2018-05-13T20:21:23.754Z,38.47
2018-05-13T20:23:58.122Z,40.60
2018-05-13T20:26:32.565Z,39.30
2018-05-13T20:29:06.890Z,41.73
2018-05-13T20:31:42.020Z,42.07
2018-05-13T20:34:16.564Z,38.57
2018-05-13T20:36:51.066Z,40.53
2018-05-13T20:39:25.369Z,40.30
2018-05-13T20:41:59.687Z,38.33
2018-05-13T20:44:34.025Z,41.33
2018-05-13T20:47:08.309Z,41.73
2018-05-13T20:49:42.894Z,37.43
2018-05-13T20:52:17.999Z,39.57
2018-05-13T20:54:52.406Z,40.53
2018-05-13T20:57:26.723Z,39.97
2018-05-13T21:00:01.034Z,38.67
2018-05-13T21:02:36.078Z,40.40
2018-05-13T21:05:10.663Z,37.73
2018-05-13T21:07:45.852Z,40.60
2018-05-13T21:10:20.199Z,41.37
2018-05-13T21:12:54.537Z,39.07
2018-05-13T21:15:28.837Z,40.03
2018-05-13T21:18:03.135Z,38.37
2018-05-13T21:20:37.593Z,38.53
2018-05-13T21:23:11.950Z,40.60
2018-05-13T21:25:46.258Z,41.27
2018-05-13T21:28:20.540Z,40.73
2018-05-13T21:30:54.867Z,41.20
2018-05-13T21:33:29.264Z,43.07
2018-05-13T21:36:03.681Z,41.00
2018-05-13T21:38:37.999Z,43.07
2018-05-13T21:41:12.509Z,42.00
2018-05-13T21:43:47.781Z,40.93
2018-05-13T21:46:22.118Z,41.23
2018-05-13T21:48:56.731Z,40.27
2018-05-13T21:51:31.132Z,41.63
2018-05-13T21:54:06.233Z,40.10
2018-05-13T21:56:40.658Z,39.23
2018-05-13T21:59:15.306Z,39.00
2018-05-13T22:01:49.789Z,39.70
2018-05-13T22:04:24.152Z,38.87
2018-05-13T22:06:58.476Z,40.53
2018-05-13T22:09:32.853Z,39.97
2018-05-13T22:12:07.159Z,40.67
2018-05-13T22:14:41.481Z,42.17
2018-05-13T22:17:15.774Z,41.40
2018-05-13T22:19:50.120Z,40.53
2018-05-13T22:22:24.532Z,43.50
2018-05-13T22:24:58.927Z,41.23
2018-05-13T22:27:33.382Z,42.97
2018-05-13T22:30:09.260Z,39.93
2018-05-13T22:32:43.709Z,40.73
2018-05-13T22:35:18.146Z,42.23
2018-05-13T22:37:53.161Z,40.63
2018-05-13T22:40:27.695Z,40.90
2018-05-13T22:43:02.201Z,42.10
2018-05-13T22:45:36.538Z,42.27
2018-05-13T22:48:11.054Z,41.63
2018-05-13T22:50:45.349Z,40.67
2018-05-13T22:53:19.787Z,40.30
2018-05-13T22:55:55.899Z,42.10
2018-05-13T22:58:30.539Z,43.47
2018-05-13T23:01:04.693Z,40.93
2018-05-13T23:03:39.098Z,43.03
2018-05-13T23:06:14.327Z,43.63
2018-05-13T23:08:48.679Z,42.57
2018-05-13T23:11:23.282Z,42.27
2018-05-13T23:13:57.719Z,43.67
2018-05-13T23:16:32.038Z,42.60
2018-05-13T23:19:06.455Z,43.50
2018-05-13T23:21:40.935Z,44.33
2018-05-13T23:24:15.237Z,42.07
2018-05-13T23:26:49.826Z,44.33
2018-05-13T23:29:25.792Z,42.33
2018-05-13T23:32:00.449Z,42.40
2018-05-13T23:34:35.082Z,42.53
2018-05-13T23:37:10.240Z,43.07
2018-05-13T23:39:44.645Z,42.70
2018-05-13T23:42:18.991Z,45.73
2018-05-13T23:44:53.368Z,42.47
2018-05-13T23:47:27.826Z,44.47
2018-05-13T23:50:02.466Z,42.90
2018-05-13T23:52:36.867Z,42.57
2018-05-13T23:55:12.108Z,44.23
2018-05-13T23:57:48.054Z,44.53
